createdAt,value
2023-02-13T00:01:20.232Z,0.60
2023-02-13T00:03:49.097Z,0.30
2023-02-13T00:06:17.593Z,0.70
2023-02-13T00:08:46.070Z,0.43
2023-02-13T00:11:14.867Z,0.50
2023-02-13T00:13:44.741Z,0.70
2023-02-13T00:16:13.253Z,0.70
2023-02-13T00:18:42.116Z,0.50
2023-02-13T00:21:11.836Z,0.50
2023-02-13T00:23:40.860Z,0.50
2023-02-13T00:26:11.026Z,0.50
2023-02-13T00:28:40.682Z,0.80
2023-02-13T00:31:11.861Z,0.70
2023-02-13T00:33:40.955Z,0.70
2023-02-13T00:36:10.630Z,0.73
2023-02-13T00:38:39.776Z,0.50
2023-02-13T00:41:10.717Z,0.57
2023-02-13T00:43:39.237Z,0.73
2023-02-13T00:46:07.865Z,0.70
2023-02-13T00:48:38.163Z,0.60
2023-02-13T00:51:06.962Z,0.80
2023-02-13T00:53:36.511Z,0.60
2023-02-13T00:56:05.607Z,0.57
2023-02-13T00:58:34.137Z,0.70
2023-02-13T01:01:02.911Z,0.60
2023-02-13T01:03:31.558Z,0.70
2023-02-13T01:06:01.577Z,0.60
2023-02-13T01:08:30.260Z,0.97
2023-02-13T01:10:59.212Z,0.70
2023-02-13T01:13:28.426Z,0.90
2023-02-13T01:15:57.093Z,0.90
2023-02-13T01:18:25.764Z,0.60
2023-02-13T01:21:03.062Z,0.50
2023-02-13T01:23:32.463Z,0.70
2023-02-13T01:26:01.296Z,0.50
2023-02-13T01:28:30.011Z,0.47
2023-02-13T01:30:59.797Z,0.57
2023-02-13T01:33:29.952Z,0.73
2023-02-13T01:35:58.542Z,0.63
2023-02-13T01:38:28.604Z,0.60
2023-02-13T01:40:57.352Z,0.63
2023-02-13T01:43:26.592Z,0.60
2023-02-13T01:45:57.647Z,0.60
2023-02-13T01:48:27.368Z,0.60
2023-02-13T01:50:58.562Z,0.60
2023-02-13T01:53:29.829Z,0.70
2023-02-13T01:56:00.736Z,0.60
2023-02-13T01:58:31.707Z,0.70
2023-02-13T02:01:00.609Z,0.30
2023-02-13T02:03:30.097Z,0.50
2023-02-13T02:05:59.202Z,0.73
2023-02-13T02:08:29.319Z,0.60
2023-02-13T02:10:58.822Z,0.40
2023-02-13T02:13:28.390Z,0.53
2023-02-13T02:15:57.077Z,0.53
2023-02-13T02:18:26.334Z,0.30
2023-02-13T02:21:23.385Z,0.60
2023-02-13T02:24:06.879Z,0.60
2023-02-13T02:26:45.709Z,0.40
2023-02-13T02:29:23.913Z,0.70
2023-02-13T02:32:05.625Z,0.50
2023-02-13T02:34:39.296Z,0.50
2023-02-13T02:37:13.791Z,0.50
2023-02-13T02:39:46.086Z,0.60
2023-02-13T02:42:20.411Z,0.50
2023-02-13T02:44:56.589Z,0.40
2023-02-13T02:47:46.412Z,0.70
2023-02-13T02:50:20.290Z,0.43
2023-02-13T02:52:54.941Z,0.47
2023-02-13T02:55:28.576Z,0.50
2023-02-13T02:58:18.322Z,0.30
2023-02-13T03:01:05.391Z,0.50
2023-02-13T03:03:53.655Z,0.60
2023-02-13T03:06:25.146Z,0.53
2023-02-13T03:09:13.004Z,0.40
2023-02-13T03:12:01.386Z,0.50
2023-02-13T03:14:30.323Z,0.60
2023-02-13T03:17:13.756Z,0.60
2023-02-13T03:20:11.799Z,0.37
2023-02-13T03:22:44.263Z,0.50
2023-02-13T03:25:14.686Z,0.80
2023-02-13T03:28:05.440Z,0.50
2023-02-13T03:30:38.984Z,0.60
2023-02-13T03:33:12.332Z,0.40
2023-02-13T03:36:05.540Z,0.40
2023-02-13T03:38:39.353Z,0.37
2023-02-13T03:41:21.507Z,0.47
2023-02-13T03:43:55.897Z,0.43
2023-02-13T03:46:25.639Z,0.40
2023-02-13T03:49:11.859Z,0.40
2023-02-13T03:51:44.587Z,0.40
2023-02-13T03:54:18.109Z,0.60
2023-02-13T03:57:06.074Z,0.50
2023-02-13T03:59:35.888Z,0.30
2023-02-13T04:02:08.775Z,0.60
2023-02-13T04:04:41.514Z,0.30
2023-02-13T04:07:29.610Z,0.30
2023-02-13T04:09:58.775Z,0.53
2023-02-13T04:12:29.116Z,0.40
2023-02-13T04:14:59.889Z,0.27
2023-02-13T04:17:31.934Z,0.30
2023-02-13T04:20:00.521Z,0.40
2023-02-13T04:22:30.395Z,0.50
2023-02-13T04:24:58.993Z,0.40
2023-02-13T04:27:28.196Z,0.30
2023-02-13T04:29:56.667Z,0.37
2023-02-13T04:32:25.250Z,0.70
2023-02-13T04:34:53.893Z,0.30
2023-02-13T04:37:22.364Z,0.40
2023-02-13T04:39:52.352Z,0.30
2023-02-13T04:42:21.282Z,0.27
2023-02-13T04:44:49.972Z,0.30
2023-02-13T04:47:18.476Z,0.30
2023-02-13T04:49:47.148Z,0.30
2023-02-13T04:52:16.437Z,0.57
2023-02-13T04:54:44.919Z,0.30
2023-02-13T04:57:15.590Z,0.27
2023-02-13T04:59:44.163Z,0.30
2023-02-13T05:02:12.700Z,0.40
2023-02-13T05:04:41.333Z,0.30
2023-02-13T05:07:09.935Z,0.40
2023-02-13T05:09:40.033Z,0.50
2023-02-13T05:12:10.131Z,0.30
2023-02-13T05:14:40.227Z,0.40
2023-02-13T05:17:08.721Z,0.40
2023-02-13T05:19:37.300Z,0.50
2023-02-13T05:22:23.711Z,0.40
2023-02-13T05:24:52.338Z,0.43
2023-02-13T05:27:20.982Z,0.30
2023-02-13T05:29:51.222Z,0.40
2023-02-13T05:32:19.966Z,0.50
2023-02-13T05:34:48.666Z,0.20
2023-02-13T05:37:17.132Z,0.50
2023-02-13T05:39:45.702Z,0.50
2023-02-13T05:42:14.385Z,0.37
2023-02-13T05:44:42.851Z,0.60
2023-02-13T05:47:12.871Z,0.60
2023-02-13T05:49:41.463Z,0.37
2023-02-13T05:52:09.932Z,0.40
2023-02-13T05:54:38.675Z,0.43
2023-02-13T05:57:07.307Z,0.50
2023-02-13T05:59:35.812Z,0.57
2023-02-13T06:02:04.353Z,1.03
2023-02-13T06:04:34.370Z,0.40
2023-02-13T06:07:02.843Z,0.30
2023-02-13T06:09:31.373Z,0.30
2023-02-13T06:11:59.963Z,0.37
2023-02-13T06:14:28.464Z,0.40
2023-02-13T06:16:57.062Z,0.40
2023-02-13T06:19:25.719Z,0.20
2023-02-13T06:21:55.592Z,0.50
2023-02-13T06:24:24.326Z,0.50
2023-02-13T06:26:52.897Z,0.40
2023-02-13T06:29:21.477Z,0.27
2023-02-13T06:31:50.146Z,0.30
2023-02-13T06:34:18.740Z,0.40
2023-02-13T06:36:47.202Z,0.20
2023-02-13T06:39:17.168Z,0.30
2023-02-13T06:41:45.744Z,0.30
2023-02-13T06:44:14.219Z,0.30
2023-02-13T06:46:42.823Z,0.50
2023-02-13T06:49:11.608Z,0.60
2023-02-13T06:51:40.087Z,0.50
2023-02-13T06:54:08.681Z,0.27
2023-02-13T06:56:38.659Z,0.30
2023-02-13T06:59:07.136Z,0.47
2023-02-13T07:01:35.716Z,0.40
2023-02-13T07:04:04.386Z,0.33
2023-02-13T07:06:33.588Z,0.30
2023-02-13T07:09:03.116Z,0.47
2023-02-13T07:11:32.198Z,0.27
2023-02-13T07:14:02.072Z,0.60
2023-02-13T07:16:30.718Z,0.50
2023-02-13T07:18:59.361Z,0.37
2023-02-13T07:21:27.842Z,0.80
2023-02-13T07:23:56.420Z,0.53
2023-02-13T07:26:26.501Z,0.40
2023-02-13T07:29:10.265Z,0.40
2023-02-13T07:31:41.248Z,0.47
2023-02-13T07:34:09.790Z,0.80
2023-02-13T07:36:38.277Z,1.20
2023-02-13T07:39:07.003Z,0.83
2023-02-13T07:41:35.473Z,1.00
2023-02-13T07:44:03.945Z,0.53
2023-02-13T07:46:32.657Z,0.67
2023-02-13T07:49:02.560Z,0.50
2023-02-13T07:51:31.052Z,0.63
2023-02-13T07:53:59.748Z,0.50
2023-02-13T07:56:28.227Z,0.30
2023-02-13T07:58:56.700Z,0.40
2023-02-13T08:01:25.435Z,0.40
2023-02-13T08:03:54.118Z,0.30
2023-02-13T08:06:24.287Z,0.40
2023-02-13T08:09:13.712Z,0.70
2023-02-13T08:11:56.369Z,0.80
2023-02-13T08:14:25.502Z,0.60
2023-02-13T08:16:54.537Z,0.60
2023-02-13T08:19:23.212Z,0.60
2023-02-13T08:21:53.297Z,0.47
2023-02-13T08:24:21.907Z,0.60
2023-02-13T08:26:50.494Z,0.60
2023-02-13T08:29:19.104Z,0.30
2023-02-13T08:31:47.602Z,0.43
2023-02-13T08:34:16.312Z,0.40
2023-02-13T08:36:44.972Z,0.30
2023-02-13T08:39:15.011Z,0.40
2023-02-13T08:41:43.689Z,0.50
2023-02-13T08:44:12.500Z,0.70
2023-02-13T08:46:40.990Z,0.37
2023-02-13T08:49:09.600Z,0.50
2023-02-13T08:51:38.137Z,0.50
2023-02-13T08:54:06.675Z,0.30
2023-02-13T08:56:36.644Z,0.33
2023-02-13T08:59:05.227Z,0.40
2023-02-13T09:01:33.764Z,0.33
2023-02-13T09:04:02.477Z,0.63
2023-02-13T09:06:31.203Z,0.40
2023-02-13T09:08:59.712Z,0.50
2023-02-13T09:11:28.294Z,0.40
2023-02-13T09:13:58.364Z,0.33
2023-02-13T09:16:26.905Z,0.40
2023-02-13T09:18:55.537Z,0.50
2023-02-13T09:21:24.905Z,0.30
2023-02-13T09:23:55.304Z,0.50
2023-02-13T09:26:24.076Z,0.33
2023-02-13T09:28:52.644Z,0.30
2023-02-13T09:31:24.456Z,0.40
2023-02-13T09:33:53.327Z,0.40
2023-02-13T09:36:24.019Z,0.40
2023-02-13T09:38:54.426Z,0.60
2023-02-13T09:41:24.766Z,0.30
2023-02-13T09:43:55.190Z,0.40
2023-02-13T09:46:26.714Z,0.47
2023-02-13T09:48:56.460Z,0.40
2023-02-13T09:51:26.614Z,0.40
2023-02-13T09:53:57.022Z,0.40
2023-02-13T09:56:33.494Z,0.40
2023-02-13T09:59:04.906Z,0.40
2023-02-13T10:01:39.888Z,0.20
2023-02-13T10:04:27.729Z,0.30
2023-02-13T10:06:59.281Z,0.60
2023-02-13T10:09:32.252Z,0.70
2023-02-13T10:12:13.996Z,0.40
2023-02-13T10:14:47.464Z,0.33
2023-02-13T10:17:19.670Z,0.37
2023-02-13T10:19:50.559Z,0.40
2023-02-13T10:22:19.836Z,0.27
2023-02-13T10:24:50.536Z,0.40
2023-02-13T10:27:23.924Z,0.37
2023-02-13T10:30:07.128Z,0.67
2023-02-13T10:32:41.954Z,0.30
2023-02-13T10:35:18.990Z,0.30
2023-02-13T10:37:51.216Z,0.40
2023-02-13T10:40:20.385Z,0.37
2023-02-13T10:42:53.000Z,0.77
2023-02-13T10:45:31.027Z,0.40
2023-02-13T10:48:08.649Z,0.33
2023-02-13T10:50:41.108Z,0.20
2023-02-13T10:53:14.686Z,0.30
2023-02-13T10:55:58.009Z,0.40
2023-02-13T10:58:32.174Z,0.33
2023-02-13T11:01:04.351Z,0.50
2023-02-13T11:03:34.344Z,0.50
2023-02-13T11:06:07.795Z,0.50
2023-02-13T11:08:37.748Z,0.20
2023-02-13T11:11:06.424Z,0.50
2023-02-13T11:13:35.008Z,0.40
2023-02-13T11:16:05.655Z,0.33
2023-02-13T11:18:37.323Z,0.50
2023-02-13T11:21:10.632Z,0.40
2023-02-13T11:23:40.754Z,0.40
2023-02-13T11:26:14.442Z,0.40
2023-02-13T11:28:49.471Z,0.40
2023-02-13T11:31:23.823Z,0.33
2023-02-13T11:33:54.330Z,0.20
2023-02-13T11:36:27.773Z,0.37
2023-02-13T11:39:03.320Z,0.30
2023-02-13T11:41:32.595Z,0.30
2023-02-13T11:44:04.901Z,0.30
2023-02-13T11:46:45.502Z,0.47
2023-02-13T11:49:19.237Z,0.20
2023-02-13T11:51:49.201Z,0.53
2023-02-13T11:54:26.399Z,0.30
2023-02-13T11:57:06.396Z,0.40
2023-02-13T11:59:40.466Z,0.23
2023-02-13T12:02:16.917Z,0.27
2023-02-13T12:04:47.316Z,0.50
2023-02-13T12:07:18.776Z,0.30
2023-02-13T12:09:48.325Z,0.50
2023-02-13T12:12:20.456Z,0.33
2023-02-13T12:14:49.028Z,0.30
2023-02-13T12:17:30.657Z,0.20
2023-02-13T12:20:02.491Z,0.50
2023-02-13T12:22:36.139Z,0.40
2023-02-13T12:25:22.324Z,0.50
2023-02-13T12:27:55.004Z,0.30
2023-02-13T12:30:34.275Z,0.23
2023-02-13T12:33:11.336Z,0.30
2023-02-13T12:35:47.610Z,0.30
2023-02-13T12:38:21.939Z,0.40
2023-02-13T12:41:00.539Z,0.30
2023-02-13T12:43:52.459Z,0.30
2023-02-13T12:46:24.163Z,0.30
2023-02-13T12:48:55.164Z,0.30
2023-02-13T12:51:31.893Z,0.20
2023-02-13T12:54:18.307Z,0.20
2023-02-13T12:57:04.479Z,0.50
2023-02-13T12:59:37.263Z,0.20
2023-02-13T13:02:16.149Z,0.53
2023-02-13T13:04:49.660Z,0.40
2023-02-13T13:07:25.988Z,0.43
2023-02-13T13:10:02.032Z,0.50
2023-02-13T13:12:38.849Z,0.37
2023-02-13T13:15:11.066Z,0.40
2023-02-13T13:17:50.545Z,0.30
2023-02-13T13:20:42.900Z,0.30
2023-02-13T13:23:15.221Z,0.30
2023-02-13T13:25:47.344Z,0.50
2023-02-13T13:28:17.699Z,0.37
2023-02-13T13:30:47.177Z,0.23
2023-02-13T13:33:17.660Z,0.40
2023-02-13T13:35:48.062Z,0.23
2023-02-13T13:38:20.010Z,0.20
2023-02-13T13:40:52.783Z,0.50
2023-02-13T13:43:25.995Z,0.40
2023-02-13T13:46:01.071Z,0.53
2023-02-13T13:48:45.688Z,0.40
2023-02-13T13:51:16.503Z,0.37
2023-02-13T13:53:59.790Z,0.40
2023-02-13T13:56:49.765Z,0.50
2023-02-13T13:59:19.456Z,0.27
2023-02-13T14:01:48.121Z,0.30
2023-02-13T14:04:31.565Z,0.50
2023-02-13T14:07:23.995Z,0.37
2023-02-13T14:09:52.636Z,0.40
2023-02-13T14:12:48.057Z,0.40
2023-02-13T14:15:35.054Z,0.30
2023-02-13T14:18:10.359Z,0.40
2023-02-13T14:20:40.783Z,0.40
2023-02-13T14:23:24.259Z,0.40
2023-02-13T14:25:53.346Z,0.60
2023-02-13T14:28:25.556Z,0.50
2023-02-13T14:30:56.807Z,0.30
2023-02-13T14:33:27.630Z,0.30
2023-02-13T14:36:03.107Z,0.40
2023-02-13T14:38:32.208Z,0.33
2023-02-13T14:41:01.161Z,0.30
2023-02-13T14:43:33.726Z,0.50
2023-02-13T14:46:06.074Z,0.40
2023-02-13T14:48:37.955Z,0.40
2023-02-13T14:51:07.226Z,0.30
2023-02-13T14:53:45.445Z,0.50
2023-02-13T14:56:15.108Z,0.43
2023-02-13T14:58:48.275Z,0.40
2023-02-13T15:01:20.493Z,0.40
2023-02-13T15:03:50.324Z,0.40
2023-02-13T15:06:25.382Z,0.70
2023-02-13T15:08:55.093Z,0.37
2023-02-13T15:11:37.317Z,0.47
2023-02-13T15:14:27.437Z,0.37
2023-02-13T15:16:57.711Z,0.53
2023-02-13T15:19:26.597Z,0.40
2023-02-13T15:21:56.893Z,0.33
2023-02-13T15:24:26.117Z,0.47
2023-02-13T15:27:05.811Z,0.50
2023-02-13T15:29:49.166Z,0.50
2023-02-13T15:32:22.428Z,0.40
2023-02-13T15:34:50.995Z,0.40
2023-02-13T15:37:23.029Z,0.50
2023-02-13T15:39:51.685Z,0.40
2023-02-13T15:42:20.477Z,0.30
2023-02-13T15:44:51.223Z,0.70
2023-02-13T15:47:21.699Z,0.40
2023-02-13T15:49:51.250Z,0.40
2023-02-13T15:52:22.076Z,0.57
2023-02-13T15:54:51.418Z,0.23
2023-02-13T15:57:20.384Z,0.30
2023-02-13T15:59:51.043Z,0.40
2023-02-13T16:02:21.280Z,0.27
2023-02-13T16:04:51.457Z,0.20
2023-02-13T16:07:20.608Z,0.27
2023-02-13T16:09:49.404Z,0.30
2023-02-13T16:12:22.712Z,0.30
2023-02-13T16:14:53.944Z,0.50
2023-02-13T16:17:27.417Z,0.20
2023-02-13T16:19:58.418Z,0.30
2023-02-13T16:22:30.419Z,0.50
2023-02-13T16:25:04.404Z,0.30
2023-02-13T16:27:35.508Z,0.60
2023-02-13T16:30:06.856Z,0.40
2023-02-13T16:32:38.230Z,0.40
2023-02-13T16:35:20.352Z,0.30
2023-02-13T16:37:52.901Z,0.43
2023-02-13T16:40:41.004Z,0.50
2023-02-13T16:43:27.172Z,0.40
2023-02-13T16:46:14.010Z,0.40
2023-02-13T16:48:42.893Z,0.43
2023-02-13T16:51:11.688Z,0.63
2023-02-13T16:53:40.648Z,0.30
2023-02-13T16:56:09.713Z,0.63
2023-02-13T16:58:38.803Z,0.63
2023-02-13T17:01:08.794Z,0.70
2023-02-13T17:03:38.555Z,1.10
2023-02-13T17:06:07.342Z,1.00
2023-02-13T17:08:35.990Z,0.70
2023-02-13T17:11:05.588Z,0.63
2023-02-13T17:13:35.007Z,0.70
2023-02-13T17:16:03.648Z,0.60
2023-02-13T17:18:33.564Z,0.77
2023-02-13T17:21:02.154Z,0.53
2023-02-13T17:23:30.726Z,0.60
2023-02-13T17:25:59.221Z,0.60
2023-02-13T17:28:30.338Z,0.60
2023-02-13T17:31:01.723Z,0.40
2023-02-13T17:33:31.597Z,0.53
2023-02-13T17:36:01.460Z,0.57
2023-02-13T17:38:30.044Z,0.70
2023-02-13T17:40:58.981Z,0.90
2023-02-13T17:43:28.052Z,0.63
2023-02-13T17:45:56.689Z,0.57
2023-02-13T17:48:25.494Z,0.80
2023-02-13T17:50:53.996Z,0.60
2023-02-13T17:53:25.536Z,0.50
2023-02-13T17:55:54.192Z,0.63
2023-02-13T17:58:22.683Z,0.40
2023-02-13T18:00:51.499Z,0.73
2023-02-13T18:03:20.583Z,0.70
2023-02-13T18:05:49.645Z,0.73
2023-02-13T18:08:18.261Z,1.00
2023-02-13T18:10:48.222Z,0.87
2023-02-13T18:13:16.700Z,0.70
2023-02-13T18:15:46.378Z,0.60
2023-02-13T18:18:16.288Z,0.80
2023-02-13T18:20:45.118Z,0.60
2023-02-13T18:23:14.143Z,0.90
2023-02-13T18:25:42.735Z,1.00
2023-02-13T18:28:12.648Z,1.00
2023-02-13T18:30:43.425Z,1.07
2023-02-13T18:33:12.104Z,0.90
2023-02-13T18:35:40.601Z,1.03
2023-02-13T18:38:10.175Z,1.00
2023-02-13T18:40:39.429Z,0.90
2023-02-13T18:43:07.955Z,0.83
2023-02-13T18:45:39.142Z,1.13
2023-02-13T18:48:09.485Z,1.00
2023-02-13T18:50:40.461Z,1.23
2023-02-13T18:53:09.117Z,1.23
2023-02-13T18:55:37.602Z,1.40
2023-02-13T18:58:06.359Z,1.03
2023-02-13T19:00:35.024Z,1.00
2023-02-13T19:03:04.896Z,1.20
2023-02-13T19:05:33.484Z,1.10
2023-02-13T19:08:02.066Z,1.40
2023-02-13T19:10:31.172Z,1.20
2023-02-13T19:12:59.755Z,1.10
2023-02-13T19:15:28.355Z,1.07
2023-02-13T19:17:57.580Z,0.93
2023-02-13T19:20:27.536Z,1.30
2023-02-13T19:22:56.501Z,1.10
2023-02-13T19:25:25.028Z,1.30
2023-02-13T19:27:53.634Z,1.33
2023-02-13T19:30:22.332Z,1.10
2023-02-13T19:32:50.839Z,1.50
2023-02-13T19:35:19.635Z,1.37
2023-02-13T19:37:51.877Z,1.37
2023-02-13T19:40:20.636Z,1.73
2023-02-13T19:42:49.250Z,1.37
2023-02-13T19:45:17.884Z,1.57
2023-02-13T19:47:46.461Z,1.60
2023-02-13T19:50:16.672Z,2.53
2023-02-13T19:52:45.232Z,3.87
2023-02-13T19:55:15.241Z,2.20
2023-02-13T19:57:43.841Z,1.80
2023-02-13T20:00:12.791Z,2.43
2023-02-13T20:02:41.539Z,2.93
2023-02-13T20:05:10.288Z,2.70
2023-02-13T20:07:38.784Z,2.47
2023-02-13T20:10:08.196Z,1.80
2023-02-13T20:12:38.369Z,2.07
2023-02-13T20:15:07.094Z,2.20
2023-02-13T20:17:37.636Z,1.70
2023-02-13T20:20:06.507Z,2.17
2023-02-13T20:22:34.988Z,2.20
2023-02-13T20:25:03.630Z,2.47
2023-02-13T20:27:32.225Z,2.00
2023-02-13T20:30:07.861Z,1.67
2023-02-13T20:32:37.564Z,1.77
2023-02-13T20:35:06.435Z,1.33
2023-02-13T20:37:35.070Z,1.50
2023-02-13T20:40:03.807Z,1.47
2023-02-13T20:42:34.515Z,1.53
2023-02-13T20:45:04.806Z,1.40
2023-02-13T20:47:33.551Z,1.90
2023-02-13T20:50:02.019Z,1.90
2023-02-13T20:52:30.610Z,1.30
2023-02-13T20:55:01.366Z,1.57
2023-02-13T20:57:29.852Z,1.50
2023-02-13T20:59:58.396Z,1.40
2023-02-13T21:02:28.445Z,1.30
2023-02-13T21:04:57.290Z,1.40
2023-02-13T21:07:25.879Z,1.20
2023-02-13T21:09:54.428Z,1.40
2023-02-13T21:12:22.933Z,1.30
2023-02-13T21:14:51.485Z,1.50
2023-02-13T21:17:20.031Z,1.50
2023-02-13T21:19:50.041Z,1.10
2023-02-13T21:22:18.698Z,1.40
2023-02-13T21:24:47.332Z,1.30
2023-02-13T21:27:15.800Z,1.17
2023-02-13T21:29:44.379Z,1.30
2023-02-13T21:32:12.944Z,1.20
2023-02-13T21:34:41.480Z,1.50
2023-02-13T21:37:11.512Z,1.27
2023-02-13T21:39:40.006Z,1.50
2023-02-13T21:42:08.486Z,1.20
2023-02-13T21:44:37.034Z,1.50
2023-02-13T21:47:07.111Z,1.60
2023-02-13T21:49:36.472Z,1.50
2023-02-13T21:52:05.088Z,1.60
2023-02-13T21:54:36.255Z,1.87
2023-02-13T21:57:04.724Z,1.87
2023-02-13T21:59:33.484Z,1.50
2023-02-13T22:02:02.828Z,1.60
2023-02-13T22:04:31.540Z,1.50
2023-02-13T22:07:00.227Z,1.57
2023-02-13T22:09:28.708Z,1.30
2023-02-13T22:11:58.689Z,1.33
2023-02-13T22:14:27.327Z,1.27
2023-02-13T22:16:55.901Z,1.07
2023-02-13T22:19:24.739Z,1.03
2023-02-13T22:21:53.289Z,1.10
2023-02-13T22:24:21.782Z,1.00
2023-02-13T22:26:50.488Z,1.10
2023-02-13T22:29:23.104Z,1.00
2023-02-13T22:31:51.808Z,1.07
2023-02-13T22:34:20.523Z,1.10
2023-02-13T22:36:49.140Z,1.23
2023-02-13T22:39:17.763Z,1.23
2023-02-13T22:41:46.638Z,1.70
2023-02-13T22:44:15.279Z,1.40
2023-02-13T22:46:45.399Z,1.90
2023-02-13T22:49:14.026Z,1.70
2023-02-13T22:51:42.592Z,1.60
2023-02-13T22:54:12.242Z,1.20
2023-02-13T22:56:40.737Z,1.30
2023-02-13T22:59:09.338Z,1.30
2023-02-13T23:01:37.853Z,1.40
2023-02-13T23:04:07.724Z,1.50
2023-02-13T23:06:36.353Z,1.27
2023-02-13T23:09:04.885Z,1.23
2023-02-13T23:11:50.967Z,1.40
2023-02-13T23:14:19.520Z,1.43
2023-02-13T23:17:05.415Z,1.23
2023-02-13T23:19:35.355Z,1.20
2023-02-13T23:22:03.740Z,1.30
2023-02-13T23:24:32.759Z,1.10
2023-02-13T23:27:01.421Z,1.10
2023-02-13T23:29:29.843Z,1.10
2023-02-13T23:31:58.650Z,0.87
2023-02-13T23:34:27.314Z,1.00
2023-02-13T23:36:58.235Z,1.10
2023-02-13T23:39:26.826Z,1.07
2023-02-13T23:41:55.211Z,1.20
2023-02-13T23:44:23.694Z,1.50
2023-02-13T23:46:52.201Z,1.13
2023-02-13T23:49:21.030Z,1.27
2023-02-13T23:51:49.614Z,1.20
2023-02-13T23:54:20.700Z,1.30
2023-02-13T23:56:50.637Z,1.57
2023-02-13T23:59:19.606Z,1.30
